sensor_id;sensor_type;location;lat;lon;timestamp;P1;durP1;ratioP1;P2;durP2;ratioP2
45940;SDS011;31858;46.008;8.978;2024-01-11T00:01:24;37.83;;;23.17;;
45940;SDS011;31858;46.008;8.978;2024-01-11T00:11:25;35.25;;;22.20;;
45940;SDS011;31858;46.008;8.978;2024-01-11T00:21:28;37.25;;;22.85;;
45940;SDS011;31858;46.008;8.978;2024-01-11T00:31:30;34.63;;;22.77;;
45940;SDS011;31858;46.008;8.978;2024-01-11T00:41:33;37.05;;;23.23;;
45940;SDS011;31858;46.008;8.978;2024-01-11T00:51:34;34.90;;;22.73;;
45940;SDS011;31858;46.008;8.978;2024-01-11T01:01:37;36.20;;;23.20;;
45940;SDS011;31858;46.008;8.978;2024-01-11T01:11:39;31.48;;;21.73;;
45940;SDS011;31858;46.008;8.978;2024-01-11T01:21:42;34.60;;;23.60;;
45940;SDS011;31858;46.008;8.978;2024-01-11T01:31:44;30.67;;;20.77;;
45940;SDS011;31858;46.008;8.978;2024-01-11T01:41:47;35.53;;;22.88;;
45940;SDS011;31858;46.008;8.978;2024-01-11T01:51:48;30.55;;;19.75;;
45940;SDS011;31858;46.008;8.978;2024-01-11T02:01:53;29.10;;;19.95;;
45940;SDS011;31858;46.008;8.978;2024-01-11T02:11:55;28.15;;;19.38;;
45940;SDS011;31858;46.008;8.978;2024-01-11T02:21:58;25.20;;;17.40;;
45940;SDS011;31858;46.008;8.978;2024-01-11T02:32:05;24.25;;;16.95;;
45940;SDS011;31858;46.008;8.978;2024-01-11T02:42:08;28.88;;;17.98;;
45940;SDS011;31858;46.008;8.978;2024-01-11T02:52:11;20.83;;;15.35;;
45940;SDS011;31858;46.008;8.978;2024-01-11T03:02:12;30.67;;;20.27;;
45940;SDS011;31858;46.008;8.978;2024-01-11T03:12:15;24.73;;;17.23;;
45940;SDS011;31858;46.008;8.978;2024-01-11T03:22:17;27.25;;;18.35;;
45940;SDS011;31858;46.008;8.978;2024-01-11T03:32:20;25.42;;;17.63;;
45940;SDS011;31858;46.008;8.978;2024-01-11T03:42:21;31.85;;;19.27;;
45940;SDS011;31858;46.008;8.978;2024-01-11T03:52:25;24.33;;;15.98;;
45940;SDS011;31858;46.008;8.978;2024-01-11T04:02:27;22.08;;;16.20;;
45940;SDS011;31858;46.008;8.978;2024-01-11T04:12:30;18.95;;;13.27;;
45940;SDS011;31858;46.008;8.978;2024-01-11T04:22:32;15.82;;;10.00;;
45940;SDS011;31858;46.008;8.978;2024-01-11T04:32:35;12.50;;;9.50;;
45940;SDS011;31858;46.008;8.978;2024-01-11T04:42:36;10.10;;;7.70;;
45940;SDS011;31858;46.008;8.978;2024-01-11T04:52:39;9.65;;;7.28;;
45940;SDS011;31858;46.008;8.978;2024-01-11T05:02:41;18.48;;;11.38;;
45940;SDS011;31858;46.008;8.978;2024-01-11T05:12:44;9.90;;;7.03;;
45940;SDS011;31858;46.008;8.978;2024-01-11T05:22:45;14.25;;;9.68;;
45940;SDS011;31858;46.008;8.978;2024-01-11T05:32:48;14.10;;;10.30;;
45940;SDS011;31858;46.008;8.978;2024-01-11T05:42:50;22.02;;;13.35;;
45940;SDS011;31858;46.008;8.978;2024-01-11T05:52:53;14.23;;;10.32;;
45940;SDS011;31858;46.008;8.978;2024-01-11T06:02:56;13.20;;;9.38;;
45940;SDS011;31858;46.008;8.978;2024-01-11T06:12:59;22.85;;;15.45;;
45940;SDS011;31858;46.008;8.978;2024-01-11T06:23:00;25.63;;;15.82;;
45940;SDS011;31858;46.008;8.978;2024-01-11T06:33:04;27.45;;;17.20;;
45940;SDS011;31858;46.008;8.978;2024-01-11T06:43:05;23.30;;;16.23;;
45940;SDS011;31858;46.008;8.978;2024-01-11T06:53:08;27.48;;;18.27;;
45940;SDS011;31858;46.008;8.978;2024-01-11T07:03:10;30.15;;;20.13;;
45940;SDS011;31858;46.008;8.978;2024-01-11T07:13:13;24.80;;;16.98;;
45940;SDS011;31858;46.008;8.978;2024-01-11T07:23:16;24.80;;;16.48;;
45940;SDS011;31858;46.008;8.978;2024-01-11T07:33:19;24.67;;;15.75;;
45940;SDS011;31858;46.008;8.978;2024-01-11T07:43:21;23.85;;;16.13;;
45940;SDS011;31858;46.008;8.978;2024-01-11T07:53:24;22.75;;;16.15;;
45940;SDS011;31858;46.008;8.978;2024-01-11T08:03:26;24.48;;;15.73;;
45940;SDS011;31858;46.008;8.978;2024-01-11T08:13:29;20.05;;;14.65;;
45940;SDS011;31858;46.008;8.978;2024-01-11T08:23:31;27.63;;;17.75;;
45940;SDS011;31858;46.008;8.978;2024-01-11T08:33:34;21.05;;;14.68;;
45940;SDS011;31858;46.008;8.978;2024-01-11T08:43:37;25.67;;;15.68;;
45940;SDS011;31858;46.008;8.978;2024-01-11T08:53:40;22.73;;;15.23;;
45940;SDS011;31858;46.008;8.978;2024-01-11T09:03:42;22.67;;;15.07;;
45940;SDS011;31858;46.008;8.978;2024-01-11T09:13:45;21.52;;;14.60;;
45940;SDS011;31858;46.008;8.978;2024-01-11T09:23:46;22.20;;;14.48;;
45940;SDS011;31858;46.008;8.978;2024-01-11T09:33:49;20.95;;;14.43;;
45940;SDS011;31858;46.008;8.978;2024-01-11T09:43:51;21.10;;;14.90;;
45940;SDS011;31858;46.008;8.978;2024-01-11T09:53:57;22.05;;;14.63;;
45940;SDS011;31858;46.008;8.978;2024-01-11T10:04:00;24.13;;;16.30;;
45940;SDS011;31858;46.008;8.978;2024-01-11T10:14:06;21.30;;;15.15;;
45940;SDS011;31858;46.008;8.978;2024-01-11T10:24:08;20.75;;;14.35;;
45940;SDS011;31858;46.008;8.978;2024-01-11T10:34:11;22.83;;;15.23;;
45940;SDS011;31858;46.008;8.978;2024-01-11T10:44:15;15.45;;;10.57;;
45940;SDS011;31858;46.008;8.978;2024-01-11T10:54:21;10.10;;;7.15;;
45940;SDS011;31858;46.008;8.978;2024-01-11T11:04:24;8.38;;;6.68;;
45940;SDS011;31858;46.008;8.978;2024-01-11T11:14:28;9.52;;;7.43;;
45940;SDS011;31858;46.008;8.978;2024-01-11T11:24:30;10.45;;;7.13;;
45940;SDS011;31858;46.008;8.978;2024-01-11T11:34:42;13.02;;;9.57;;
45940;SDS011;31858;46.008;8.978;2024-01-11T11:44:47;14.68;;;9.10;;
45940;SDS011;31858;46.008;8.978;2024-01-11T11:54:51;9.68;;;7.70;;
45940;SDS011;31858;46.008;8.978;2024-01-11T12:04:53;12.23;;;8.35;;
45940;SDS011;31858;46.008;8.978;2024-01-11T12:14:57;16.73;;;11.43;;
45940;SDS011;31858;46.008;8.978;2024-01-11T12:24:59;15.30;;;11.52;;
45940;SDS011;31858;46.008;8.978;2024-01-11T12:35:04;17.50;;;11.65;;
45940;SDS011;31858;46.008;8.978;2024-01-11T12:45:06;16.25;;;12.02;;
45940;SDS011;31858;46.008;8.978;2024-01-11T12:55:17;14.73;;;11.25;;
45940;SDS011;31858;46.008;8.978;2024-01-11T13:05:19;15.40;;;10.85;;
45940;SDS011;31858;46.008;8.978;2024-01-11T13:15:22;13.27;;;9.88;;
45940;SDS011;31858;46.008;8.978;2024-01-11T13:25:24;12.98;;;9.82;;
45940;SDS011;31858;46.008;8.978;2024-01-11T13:35:27;13.55;;;9.77;;
45940;SDS011;31858;46.008;8.978;2024-01-11T13:45:29;15.27;;;10.27;;
45940;SDS011;31858;46.008;8.978;2024-01-11T13:55:32;13.77;;;8.80;;
45940;SDS011;31858;46.008;8.978;2024-01-11T14:05:37;9.70;;;7.78;;
45940;SDS011;31858;46.008;8.978;2024-01-11T14:15:40;17.05;;;9.00;;
45940;SDS011;31858;46.008;8.978;2024-01-11T14:25:43;10.88;;;8.20;;
45940;SDS011;31858;46.008;8.978;2024-01-11T14:35:46;10.25;;;8.32;;
45940;SDS011;31858;46.008;8.978;2024-01-11T14:45:48;11.63;;;8.90;;
45940;SDS011;31858;46.008;8.978;2024-01-11T14:55:52;10.55;;;8.40;;
45940;SDS011;31858;46.008;8.978;2024-01-11T15:05:54;10.88;;;8.18;;
45940;SDS011;31858;46.008;8.978;2024-01-11T15:15:57;9.93;;;7.50;;
45940;SDS011;31858;46.008;8.978;2024-01-11T15:25:58;9.85;;;7.65;;
45940;SDS011;31858;46.008;8.978;2024-01-11T15:36:01;14.18;;;10.63;;
45940;SDS011;31858;46.008;8.978;2024-01-11T15:46:03;7.47;;;6.40;;
45940;SDS011;31858;46.008;8.978;2024-01-11T15:56:06;7.63;;;5.88;;
45940;SDS011;31858;46.008;8.978;2024-01-11T16:06:08;17.05;;;10.80;;
45940;SDS011;31858;46.008;8.978;2024-01-11T16:16:11;7.80;;;6.28;;
45940;SDS011;31858;46.008;8.978;2024-01-11T16:26:13;10.93;;;8.18;;
45940;SDS011;31858;46.008;8.978;2024-01-11T16:36:16;9.40;;;7.03;;
45940;SDS011;31858;46.008;8.978;2024-01-11T16:46:17;11.50;;;8.40;;
45940;SDS011;31858;46.008;8.978;2024-01-11T16:56:21;12.40;;;8.90;;
45940;SDS011;31858;46.008;8.978;2024-01-11T17:06:22;10.88;;;8.35;;
45940;SDS011;31858;46.008;8.978;2024-01-11T17:16:25;10.55;;;7.47;;
45940;SDS011;31858;46.008;8.978;2024-01-11T17:26:27;10.27;;;8.00;;
45940;SDS011;31858;46.008;8.978;2024-01-11T17:36:29;11.55;;;7.85;;
45940;SDS011;31858;46.008;8.978;2024-01-11T17:46:31;12.02;;;8.45;;
45940;SDS011;31858;46.008;8.978;2024-01-11T17:56:34;12.60;;;8.52;;
45940;SDS011;31858;46.008;8.978;2024-01-11T18:06:43;16.65;;;9.45;;
45940;SDS011;31858;46.008;8.978;2024-01-11T18:16:46;12.95;;;9.18;;
45940;SDS011;31858;46.008;8.978;2024-01-11T18:26:48;10.88;;;7.90;;
45940;SDS011;31858;46.008;8.978;2024-01-11T18:36:50;9.80;;;6.25;;
45940;SDS011;31858;46.008;8.978;2024-01-11T18:46:52;8.60;;;6.07;;
45940;SDS011;31858;46.008;8.978;2024-01-11T18:56:55;8.98;;;6.40;;
45940;SDS011;31858;46.008;8.978;2024-01-11T19:06:57;9.55;;;6.43;;
45940;SDS011;31858;46.008;8.978;2024-01-11T19:17:00;7.57;;;6.30;;
45940;SDS011;31858;46.008;8.978;2024-01-11T19:27:03;10.82;;;8.02;;
45940;SDS011;31858;46.008;8.978;2024-01-11T19:37:06;9.43;;;6.85;;
45940;SDS011;31858;46.008;8.978;2024-01-11T19:47:07;12.25;;;8.10;;
45940;SDS011;31858;46.008;8.978;2024-01-11T19:57:10;8.50;;;6.55;;
45940;SDS011;31858;46.008;8.978;2024-01-11T20:07:13;10.15;;;7.82;;
45940;SDS011;31858;46.008;8.978;2024-01-11T20:17:16;11.93;;;7.70;;
45940;SDS011;31858;46.008;8.978;2024-01-11T20:27:18;10.40;;;8.25;;
45940;SDS011;31858;46.008;8.978;2024-01-11T20:37:20;11.68;;;8.25;;
45940;SDS011;31858;46.008;8.978;2024-01-11T20:47:23;15.55;;;8.32;;
45940;SDS011;31858;46.008;8.978;2024-01-11T20:57:27;16.38;;;8.13;;
45940;SDS011;31858;46.008;8.978;2024-01-11T21:07:29;8.23;;;6.00;;
45940;SDS011;31858;46.008;8.978;2024-01-11T21:17:32;9.18;;;5.85;;
45940;SDS011;31858;46.008;8.978;2024-01-11T21:27:33;6.60;;;5.10;;
45940;SDS011;31858;46.008;8.978;2024-01-11T21:37:36;9.13;;;6.78;;
45940;SDS011;31858;46.008;8.978;2024-01-11T21:47:39;10.90;;;7.72;;
45940;SDS011;31858;46.008;8.978;2024-01-11T21:57:43;7.03;;;5.70;;
45940;SDS011;31858;46.008;8.978;2024-01-11T22:07:44;7.50;;;5.82;;
45940;SDS011;31858;46.008;8.978;2024-01-11T22:17:47;10.30;;;6.03;;
45940;SDS011;31858;46.008;8.978;2024-01-11T22:27:49;8.05;;;6.40;;
45940;SDS011;31858;46.008;8.978;2024-01-11T22:37:52;10.02;;;7.20;;
45940;SDS011;31858;46.008;8.978;2024-01-11T22:47:53;8.07;;;6.00;;
45940;SDS011;31858;46.008;8.978;2024-01-11T22:57:56;7.85;;;5.30;;
45940;SDS011;31858;46.008;8.978;2024-01-11T23:07:58;7.57;;;5.32;;
45940;SDS011;31858;46.008;8.978;2024-01-11T23:18:01;5.85;;;4.70;;
45940;SDS011;31858;46.008;8.978;2024-01-11T23:28:03;7.68;;;5.72;;
45940;SDS011;31858;46.008;8.978;2024-01-11T23:38:06;6.72;;;5.38;;
45940;SDS011;31858;46.008;8.978;2024-01-11T23:48:07;7.28;;;5.88;;
45940;SDS011;31858;46.008;8.978;2024-01-11T23:58:10;6.50;;;4.78;;
